Time;durP1;ratioP1;P1;durP2;ratioP2;P2;SDS_P1;SDS_P2;PMS_P1;PMS_P2;Temp;Humidity;BMP_temperature;BMP_pressure;BME280_temperature;BME280_humidity;BME280_pressure;Samples;Min_cycle;Max_cycle;Signal;HPM_P1;HPM_P2
2022/06/03 00:01:54;;;;;;;3.28;2.13;;;25.90;59.00;;;;;;5036331;28;19990;-70
2022/06/03 00:04:22;;;;;;;4.30;2.28;;;25.80;58.60;;;;;;5045130;28;20092;-70
2022/06/03 00:07:21;;;;;;;3.03;2.45;;;25.80;58.30;;;;;;5034969;28;20021;-71
2022/06/03 00:09:59;;;;;;;3.45;2.05;;;25.80;58.60;;;;;;5036438;28;20034;-68
2022/06/03 00:12:32;;;;;;;3.42;2.15;;;25.90;58.70;;;;;;5036309;28;20036;-71
2022/06/03 00:15:03;;;;;;;3.40;2.25;;;25.80;58.50;;;;;;5036366;28;20025;-71
2022/06/03 00:17:29;;;;;;;2.38;2.17;;;25.80;58.60;;;;;;5035945;28;20032;-70
2022/06/03 00:20:25;;;;;;;3.22;2.30;;;25.80;58.70;;;;;;5035929;28;20029;-70
2022/06/03 00:23:29;;;;;;;2.50;2.17;;;25.80;58.90;;;;;;5035890;28;20030;-70
2022/06/03 00:26:14;;;;;;;2.40;2.20;;;25.70;59.00;;;;;;5036236;28;20108;-71
2022/06/03 00:29:01;;;;;;;3.08;2.25;;;25.70;59.00;;;;;;5035718;28;20099;-71
2022/06/03 00:31:54;;;;;;;2.50;2.30;;;25.70;58.90;;;;;;5036402;28;20037;-70
2022/06/03 00:35:16;;;;;;;2.20;2.00;;;25.70;59.00;;;;;;5034994;28;20439;-71
2022/06/03 00:37:55;;;;;;;2.47;1.98;;;25.70;59.30;;;;;;5052940;28;20025;-70
2022/06/03 00:40:32;;;;;;;2.45;2.13;;;25.70;58.90;;;;;;5053680;28;20040;-71
2022/06/03 00:43:16;;;;;;;2.15;1.90;;;25.70;59.50;;;;;;5039896;28;20037;-71
2022/06/03 00:45:48;;;;;;;3.00;2.17;;;25.70;59.20;;;;;;5026261;28;20472;-71
2022/06/03 00:48:55;;;;;;;2.05;1.85;;;25.60;58.90;;;;;;5014373;28;20042;-70
2022/06/03 00:51:36;;;;;;;2.10;1.90;;;25.60;59.10;;;;;;5029821;28;20083;-71
2022/06/03 00:54:23;;;;;;;2.35;1.90;;;25.60;59.00;;;;;;5015164;28;20480;-73
2022/06/03 00:57:07;;;;;;;3.20;2.10;;;25.60;59.40;;;;;;5015722;28;20030;-71
2022/06/03 00:59:57;;;;;;;2.67;2.13;;;25.60;59.30;;;;;;5015700;28;20368;-71
2022/06/03 01:02:57;;;;;;;3.20;2.17;;;25.60;59.10;;;;;;5015167;28;20041;-70
2022/06/03 01:06:01;;;;;;;2.20;2.00;;;25.60;59.70;;;;;;5014228;28;20033;-70
2022/06/03 01:08:43;;;;;;;2.50;2.10;;;25.50;59.50;;;;;;5015763;28;20036;-71
2022/06/03 01:11:43;;;;;;;2.25;2.05;;;25.40;59.80;;;;;;4998301;28;20037;-69
2022/06/03 01:14:27;;;;;;;2.63;2.13;;;25.30;59.80;;;;;;5015525;28;20026;-71
2022/06/03 01:17:09;;;;;;;2.25;2.00;;;25.20;59.60;;;;;;5015864;28;20037;-70
2022/06/03 01:20:15;;;;;;;2.10;1.90;;;25.20;60.20;;;;;;5035186;28;20021;-71
2022/06/03 01:23:08;;;;;;;3.13;2.20;;;25.10;60.60;;;;;;5043392;28;20042;-70
2022/06/03 01:26:08;;;;;;;2.53;2.13;;;25.10;60.10;;;;;;5035195;28;20484;-70
2022/06/03 01:28:50;;;;;;;2.10;1.90;;;25.00;60.30;;;;;;5033631;28;20128;-70
2022/06/03 01:31:37;;;;;;;2.60;2.40;;;25.00;60.30;;;;;;5034667;28;20036;-70
2022/06/03 01:34:33;;;;;;;2.65;2.42;;;25.00;60.30;;;;;;5034943;28;20029;-70
2022/06/03 01:37:23;;;;;;;2.08;1.90;;;24.90;60.60;;;;;;5034784;28;20083;-70
2022/06/03 01:39:57;;;;;;;2.53;2.33;;;24.80;60.90;;;;;;5034620;28;20029;-67
2022/06/03 01:42:48;;;;;;;3.10;2.42;;;24.80;60.70;;;;;;5034433;28;20084;-70
2022/06/03 01:45:33;;;;;;;4.53;2.47;;;24.70;61.10;;;;;;5033592;28;20033;-71
2022/06/03 01:48:17;;;;;;;;;;;24.70;61.20;;;;;;5034950;28;20032;-70
2022/06/03 01:51:02;;;;;;;4.60;2.30;;;24.70;62.40;;;;;;5034407;28;19905;-70
2022/06/03 01:53:39;;;;;;;2.55;2.35;;;24.70;61.40;;;;;;5027973;28;20025;-72
2022/06/03 01:56:30;;;;;;;2.85;2.20;;;24.60;61.20;;;;;;5034279;28;20033;-70
2022/06/03 01:59:20;;;;;;;2.50;2.30;;;24.60;62.10;;;;;;5034829;28;20064;-69
2022/06/03 02:02:04;;;;;;;3.25;2.00;;;24.60;61.60;;;;;;5034172;28;20043;-68
2022/06/03 02:04:49;;;;;;;2.40;2.20;;;24.60;61.50;;;;;;5030244;28;20453;-70
2022/06/03 02:07:54;;;;;;;3.47;2.33;;;24.50;61.70;;;;;;5021315;28;20535;-70
2022/06/03 02:10:38;;;;;;;2.35;2.15;;;24.50;61.80;;;;;;5021338;28;20048;-70
2022/06/03 02:13:06;;;;;;;;;;;24.50;62.40;;;;;;5013895;28;20025;-70
2022/06/03 02:15:51;;;;;;;1.90;1.80;;;24.50;63.10;;;;;;5022709;28;19905;-70
2022/06/03 02:18:25;;;;;;;;;;;24.40;61.80;;;;;;5015923;28;20053;-68
2022/06/03 02:21:17;;;;;;;2.47;2.28;;;24.30;64.20;;;;;;5014394;28;19913;-70
2022/06/03 02:23:49;;;;;;;3.22;2.40;;;24.30;62.60;;;;;;5015408;28;20120;-70
2022/06/03 02:26:39;;;;;;;3.00;2.53;;;24.20;62.20;;;;;;5023046;28;20473;-69
2022/06/03 02:32:28;;;;;;;3.33;2.60;;;24.20;63.80;;;;;;5022435;28;20096;-69
2022/06/03 02:34:57;;;;;;;2.80;2.60;;;24.20;62.50;;;;;;5012777;28;20169;-70
2022/06/03 02:37:38;;;;;;;3.20;2.70;;;24.10;62.70;;;;;;5023420;28;20028;-70
2022/06/03 02:40:23;;;;;;;3.30;2.60;;;24.10;63.00;;;;;;5022030;28;20025;-68
2022/06/03 02:43:08;;;;;;;2.88;2.58;;;24.10;62.80;;;;;;5015223;28;20034;-69
2022/06/03 02:45:34;;;;;;;2.55;2.35;;;24.20;63.30;;;;;;5014725;28;20041;-70
2022/06/03 02:48:25;;;;;;;3.58;2.42;;;24.20;62.80;;;;;;5021182;28;20018;-70
2022/06/03 02:51:33;;;;;;;2.70;2.50;;;24.20;63.00;;;;;;5019506;28;20025;-70
2022/06/03 02:54:20;;;;;;;2.72;2.47;;;24.30;63.10;;;;;;5023584;28;20454;-70
2022/06/03 02:57:21;;;;;;;2.80;2.53;;;24.30;62.60;;;;;;5014945;28;20468;-70
2022/06/03 02:59:55;;;;;;;3.65;2.67;;;24.40;62.60;;;;;;5026086;28;20045;-70
2022/06/03 03:02:52;;;;;;;2.75;2.55;;;24.40;62.60;;;;;;5012655;28;20034;-70
2022/06/03 03:05:41;;;;;;;3.47;2.80;;;24.40;62.80;;;;;;5012858;28;20042;-68
2022/06/03 03:08:51;;;;;;;3.20;2.90;;;24.40;62.60;;;;;;5011449;28;20480;-69
2022/06/03 03:11:30;;;;;;;3.40;2.65;;;24.40;62.90;;;;;;5010659;28;20075;-68
2022/06/03 03:14:30;;;;;;;3.67;2.58;;;24.50;62.60;;;;;;5011490;28;20033;-70
2022/06/03 03:17:29;;;;;;;2.97;2.72;;;24.50;63.00;;;;;;5012736;28;20030;-72
2022/06/03 03:20:21;;;;;;;5.22;2.80;;;24.50;62.90;;;;;;5012639;28;20104;-71
2022/06/03 03:22:53;;;;;;;3.78;2.80;;;24.50;62.90;;;;;;5013438;28;20037;-69
2022/06/03 03:25:44;;;;;;;2.88;2.67;;;24.50;62.60;;;;;;5012595;28;20026;-71
2022/06/03 03:28:18;;;;;;;3.50;2.88;;;24.50;62.90;;;;;;5013102;28;20033;-70
2022/06/03 03:31:14;;;;;;;3.40;3.10;;;24.50;62.70;;;;;;5013707;28;20353;-74
2022/06/03 03:34:03;;;;;;;3.22;2.80;;;24.50;63.00;;;;;;5015165;28;20026;-69
2022/06/03 03:36:54;;;;;;;3.05;2.75;;;24.50;62.80;;;;;;5017024;28;20531;-70
2022/06/03 03:39:57;;;;;;;2.65;2.45;;;24.50;63.10;;;;;;5017416;28;20109;-69
2022/06/03 03:42:38;;;;;;;2.72;2.53;;;24.50;63.10;;;;;;5016943;28;20034;-70
2022/06/03 03:45:31;;;;;;;3.00;2.70;;;24.60;62.90;;;;;;5016986;28;20492;-67
2022/06/03 03:48:34;;;;;;;3.60;2.90;;;24.60;63.10;;;;;;5016739;28;20030;-70
2022/06/03 03:51:00;;;;;;;3.10;2.63;;;24.60;63.10;;;;;;5015000;28;20472;-70
2022/06/03 03:53:50;;;;;;;3.72;2.83;;;24.60;62.80;;;;;;5017020;28;20061;-68
2022/06/03 03:56:48;;;;;;;2.90;2.60;;;24.60;63.10;;;;;;5016914;28;20473;-70
2022/06/03 03:59:42;;;;;;;3.65;2.63;;;24.60;63.10;;;;;;5026153;28;20042;-70
2022/06/03 04:02:33;;;;;;;3.00;2.70;;;24.60;63.10;;;;;;5016534;28;20038;-70
2022/06/03 04:05:42;;;;;;;3.15;2.85;;;24.70;62.90;;;;;;5016705;28;20037;-70
2022/06/03 04:08:38;;;;;;;2.67;2.47;;;24.70;63.10;;;;;;5015140;28;20026;-68
2022/06/03 04:11:36;;;;;;;3.30;2.70;;;24.70;62.90;;;;;;5016605;28;20046;-71
2022/06/03 04:14:27;;;;;;;2.90;2.63;;;24.70;62.90;;;;;;5016164;28;20084;-68
2022/06/03 04:17:17;;;;;;;3.35;2.67;;;24.70;62.70;;;;;;5023442;28;20053;-69
2022/06/03 04:20:17;;;;;;;3.33;2.95;;;24.80;62.70;;;;;;5016175;28;20029;-66
2022/06/03 04:23:03;;;;;;;3.03;2.75;;;24.90;62.70;;;;;;5016181;28;20034;-70
2022/06/03 04:25:34;;;;;;;2.90;2.60;;;24.90;62.50;;;;;;5016294;28;20488;-70
2022/06/03 04:28:36;;;;;;;2.90;2.63;;;25.00;62.30;;;;;;5016112;28;20030;-71
2022/06/03 04:31:40;;;;;;;3.13;2.78;;;25.00;62.30;;;;;;5016188;28;20046;-70
2022/06/03 04:34:37;;;;;;;3.20;2.63;;;25.10;62.30;;;;;;5017799;28;20069;-70
2022/06/03 04:37:35;;;;;;;2.97;2.47;;;25.10;62.20;;;;;;5026020;28;20038;-70
2022/06/03 04:40:16;;;;;;;2.80;2.60;;;25.10;62.00;;;;;;5015938;28;20050;-71
2022/06/03 04:43:06;;;;;;;2.80;2.60;;;25.20;62.00;;;;;;5022331;28;20109;-70
2022/06/03 04:45:59;;;;;;;3.05;2.65;;;25.20;61.90;;;;;;5022666;28;20029;-71
2022/06/03 04:48:44;;;;;;;2.80;2.60;;;25.20;61.90;;;;;;5017164;28;20033;-71
2022/06/03 04:51:28;;;;;;;2.97;2.70;;;25.20;61.70;;;;;;5016936;28;20531;-71
2022/06/03 04:54:01;;;;;;;3.08;2.60;;;25.30;61.80;;;;;;5016985;28;20030;-70
2022/06/03 04:56:50;;;;;;;2.97;2.78;;;25.30;61.70;;;;;;5023925;28;20038;-70
2022/06/03 04:59:36;;;;;;;3.20;2.80;;;25.30;61.70;;;;;;5017835;28;20038;-71
2022/06/03 05:02:29;;;;;;;2.78;2.55;;;25.30;61.50;;;;;;5016449;28;20495;-71
2022/06/03 05:05:17;;;;;;;2.83;2.58;;;25.40;61.50;;;;;;5023645;28;20030;-71
2022/06/03 05:08:01;;;;;;;3.10;2.80;;;25.40;61.40;;;;;;5015219;28;20014;-70
2022/06/03 05:11:03;;;;;;;3.35;3.05;;;25.40;61.30;;;;;;5015011;28;20045;-71
2022/06/03 05:14:06;;;;;;;3.05;2.75;;;25.40;61.30;;;;;;5015362;28;20081;-72
2022/06/03 05:16:50;;;;;;;2.95;2.65;;;25.40;61.20;;;;;;5024149;28;20036;-70
2022/06/03 05:19:18;;;;;;;;;;;25.40;61.10;;;;;;5035392;28;20037;-71
2022/06/03 05:22:03;;;;;;;2.80;2.50;;;25.30;61.10;;;;;;5026289;28;19913;-76
2022/06/03 05:25:02;;;;;;;3.22;2.90;;;25.30;60.90;;;;;;5015020;28;20038;-70
2022/06/03 05:27:48;;;;;;;3.25;2.95;;;25.30;60.90;;;;;;5022192;28;20480;-71
2022/06/03 05:30:51;;;;;;;3.40;2.90;;;25.30;60.90;;;;;;5014847;28;20050;-70
2022/06/03 05:33:43;;;;;;;3.30;3.00;;;25.30;60.90;;;;;;5024416;28;20029;-70
2022/06/03 05:36:37;;;;;;;3.20;2.90;;;25.20;60.80;;;;;;5033703;28;20104;-70
2022/06/03 05:39:40;;;;;;;3.20;2.90;;;25.20;60.80;;;;;;5014093;28;20022;-70
2022/06/03 05:42:38;;;;;;;3.30;3.00;;;25.20;60.70;;;;;;5014354;28;20042;-71
2022/06/03 05:45:36;;;;;;;3.75;3.17;;;25.20;60.70;;;;;;5035038;28;20125;-74
2022/06/03 05:48:32;;;;;;;3.45;3.15;;;25.20;60.70;;;;;;5029620;28;20389;-71
2022/06/03 05:51:01;;;;;;;3.72;3.42;;;25.20;60.70;;;;;;5034117;28;20444;-70
2022/06/03 05:53:27;;;;;;;3.78;3.47;;;25.20;60.70;;;;;;5024531;28;20109;-69
2022/06/03 05:56:22;;;;;;;3.90;3.50;;;25.20;60.60;;;;;;5022109;28;20468;-70
2022/06/03 05:59:00;;;;;;;4.50;3.70;;;25.20;60.60;;;;;;5031504;28;20036;-68
2022/06/03 06:02:03;;;;;;;4.07;3.67;;;25.20;60.60;;;;;;5023816;28;20029;-72
2022/06/03 06:04:41;;;;;;;4.50;4.07;;;25.20;60.50;;;;;;5023449;28;20037;-69
2022/06/03 06:07:23;;;;;;;4.28;3.88;;;25.20;60.50;;;;;;5013638;28;20091;-72
2022/06/03 06:10:14;;;;;;;4.45;3.97;;;25.30;60.60;;;;;;5023705;28;20052;-68
2022/06/03 06:12:45;;;;;;;5.47;4.03;;;25.30;60.50;;;;;;5027099;28;20447;-71
2022/06/03 06:15:26;;;;;;;4.95;4.20;;;25.30;60.50;;;;;;5019157;28;20029;-71
2022/06/03 06:18:17;;;;;;;4.60;4.20;;;25.40;60.40;;;;;;5019803;28;20038;-71
2022/06/03 06:20:51;;;;;;;5.32;4.03;;;25.50;60.30;;;;;;5020901;28;20025;-71
2022/06/03 06:23:36;;;;;;;4.35;3.95;;;25.50;60.20;;;;;;5016161;28;20080;-70
2022/06/03 06:26:35;;;;;;;4.82;4.40;;;25.60;60.10;;;;;;5021714;28;20134;-72
2022/06/03 06:29:31;;;;;;;4.70;3.88;;;25.70;60.00;;;;;;5015702;28;20185;-69
2022/06/03 06:32:19;;;;;;;5.75;4.13;;;25.80;59.80;;;;;;5023615;28;20065;-72
2022/06/03 06:35:07;;;;;;;4.93;4.50;;;25.90;59.50;;;;;;5019340;28;20022;-71
2022/06/03 06:38:12;;;;;;;4.57;4.07;;;25.90;59.40;;;;;;5020989;28;20026;-76
2022/06/03 06:40:47;;;;;;;;;;;26.00;59.20;;;;;;5013211;28;20451;-71
2022/06/03 06:43:28;;;;;;;4.35;3.70;;;25.90;59.00;;;;;;5012854;28;19914;-72
2022/06/03 06:46:06;;;;;;;5.05;4.55;;;26.00;59.10;;;;;;5012814;28;20026;-72
2022/06/03 06:48:49;;;;;;;5.18;4.68;;;26.00;59.00;;;;;;5019508;28;20059;-75
2022/06/03 06:51:47;;;;;;;5.07;4.55;;;26.00;59.00;;;;;;5024340;28;20033;-76
2022/06/03 06:54:21;;;;;;;4.95;4.45;;;26.00;59.00;;;;;;5026212;28;20063;-71
2022/06/03 06:56:53;;;;;;;5.10;4.55;;;26.00;58.90;;;;;;5014941;28;20419;-71
2022/06/03 06:59:25;;;;;;;5.00;4.32;;;26.00;58.80;;;;;;5018205;28;20021;-70
2022/06/03 07:01:58;;;;;;;4.80;4.30;;;26.10;58.80;;;;;;5022700;28;20456;-73
2022/06/03 07:04:29;;;;;;;4.97;4.47;;;26.10;58.80;;;;;;5021169;28;20388;-72
2022/06/03 07:07:34;;;;;;;4.85;4.35;;;26.10;58.70;;;;;;5020089;28;20030;-71
2022/06/03 07:10:08;;;;;;;5.00;4.50;;;26.10;58.50;;;;;;5028899;28;20033;-70
2022/06/03 07:13:06;;;;;;;5.47;4.25;;;26.20;58.60;;;;;;5031165;28;20037;-72
2022/06/03 07:15:50;;;;;;;6.45;4.32;;;26.20;58.50;;;;;;5025223;28;20499;-70
2022/06/03 07:21:35;;;;;;;6.35;4.68;;;26.20;58.30;;;;;;5025786;28;20048;-74
2022/06/03 07:24:12;;;;;;;4.90;4.38;;;26.30;58.30;;;;;;5023761;28;20025;-68
2022/06/03 07:26:45;;;;;;;4.80;4.30;;;26.40;58.20;;;;;;5022819;28;20056;-72
2022/06/03 07:29:17;;;;;;;4.70;4.30;;;26.40;58.40;;;;;;5019235;28;20472;-70
2022/06/03 07:32:02;;;;;;;5.70;4.10;;;26.40;58.00;;;;;;5015745;28;20041;-70
2022/06/03 07:34:36;;;;;;;4.93;4.47;;;26.30;57.90;;;;;;5017463;28;20022;-69
2022/06/03 07:37:20;;;;;;;;;;;26.40;57.90;;;;;;5016354;28;20487;-71
2022/06/03 07:40:32;;;;;;;4.05;3.65;;;26.40;57.60;;;;;;5017204;28;19926;-69
2022/06/03 07:43:23;;;;;;;3.97;3.58;;;26.40;57.50;;;;;;5016831;28;20549;-71
2022/06/03 07:46:18;;;;;;;3.92;3.53;;;26.50;57.50;;;;;;5017165;28;20030;-75
2022/06/03 07:48:44;;;;;;;4.35;3.38;;;26.60;57.40;;;;;;5017653;28;20108;-73
2022/06/03 07:51:17;;;;;;;4.65;3.97;;;26.60;57.20;;;;;;5016699;28;20041;-70
2022/06/03 07:54:12;;;;;;;4.30;3.90;;;26.70;57.10;;;;;;5016943;28;20030;-69
2022/06/03 07:56:39;;;;;;;4.20;3.80;;;26.70;56.90;;;;;;5016992;28;20058;-70
2022/06/03 07:59:09;;;;;;;4.30;3.90;;;26.70;56.70;;;;;;5016796;28;20026;-68
2022/06/03 08:01:38;;;;;;;3.92;3.63;;;26.70;56.70;;;;;;5016744;28;20042;-68
2022/06/03 08:04:07;;;;;;;4.35;3.35;;;26.80;56.80;;;;;;5016679;28;20515;-70
2022/06/03 08:12:10;;;;;;;3.90;3.50;;;26.90;56.30;;;;;;5016595;28;20037;-70
2022/06/03 08:14:35;;;;;;;3.75;3.45;;;27.00;56.10;;;;;;5016543;28;20026;-71
2022/06/03 08:17:04;;;;;;;4.47;3.50;;;27.00;56.00;;;;;;5016336;28;20026;-71
2022/06/03 08:19:33;;;;;;;3.60;3.25;;;26.90;55.90;;;;;;5013955;28;20037;-70
2022/06/03 08:22:02;;;;;;;3.58;3.28;;;26.90;55.90;;;;;;5016226;28;20033;-70
2022/06/03 08:24:35;;;;;;;3.50;3.13;;;27.00;55.90;;;;;;5016100;28;20045;-70
2022/06/03 08:27:05;;;;;;;4.28;3.20;;;27.00;55.80;;;;;;5015969;28;20030;-69
2022/06/03 08:29:44;;;;;;;4.30;3.40;;;27.10;55.70;;;;;;5016424;28;20095;-70
2022/06/03 08:32:20;;;;;;;3.08;2.88;;;27.10;55.50;;;;;;5015909;28;20030;-70
2022/06/03 08:34:51;;;;;;;3.55;3.25;;;27.20;55.40;;;;;;5015964;28;20332;-68
2022/06/03 08:37:33;;;;;;;3.38;3.08;;;27.30;55.40;;;;;;5016054;28;20495;-70
2022/06/03 08:40:02;;;;;;;3.45;3.15;;;27.30;55.10;;;;;;5014714;28;20080;-69
2022/06/03 08:42:41;;;;;;;3.72;3.42;;;27.30;55.20;;;;;;5015602;28;20030;-70
2022/06/03 08:45:30;;;;;;;3.42;3.13;;;27.40;55.10;;;;;;5015750;28;20476;-68
2022/06/03 08:47:59;;;;;;;3.15;2.85;;;27.30;54.90;;;;;;5016069;28;20492;-70
2022/06/03 08:50:36;;;;;;;3.08;2.78;;;27.40;54.90;;;;;;5014572;28;20432;-71
2022/06/03 08:53:25;;;;;;;3.45;3.15;;;27.40;54.80;;;;;;5014260;28;20453;-70
2022/06/03 08:55:59;;;;;;;3.38;3.00;;;27.50;54.80;;;;;;5014609;28;20370;-67
2022/06/03 08:58:54;;;;;;;4.03;3.20;;;27.50;54.70;;;;;;5014510;28;20037;-71
2022/06/03 09:01:25;;;;;;;;;;;27.50;54.50;;;;;;5015751;28;20125;-68
2022/06/03 09:04:12;;;;;;;4.03;2.88;;;27.50;54.10;;;;;;5016168;28;19905;-68
2022/06/03 09:06:46;;;;;;;5.50;2.80;;;27.60;54.60;;;;;;5015603;28;20376;-69
2022/06/03 09:09:47;;;;;;;3.65;3.03;;;27.60;54.40;;;;;;5014035;28;20491;-70
2022/06/03 09:12:23;;;;;;;2.78;2.58;;;27.60;54.00;;;;;;5015297;28;20064;-70
2022/06/03 09:14:52;;;;;;;3.40;2.70;;;27.60;54.00;;;;;;5015345;28;20026;-70
2022/06/03 09:17:42;;;;;;;3.30;3.00;;;27.60;54.10;;;;;;5013625;28;20479;-70
2022/06/03 09:20:19;;;;;;;2.92;2.70;;;27.50;53.90;;;;;;5015019;28;20030;-70
2022/06/03 09:22:46;;;;;;;3.20;2.90;;;27.40;53.80;;;;;;5015028;28;20504;-71
2022/06/03 09:25:15;;;;;;;2.90;2.70;;;27.40;53.90;;;;;;5013985;28;20057;-70
2022/06/03 09:27:42;;;;;;;3.10;2.75;;;27.40;54.00;;;;;;5014830;28;20053;-70
2022/06/03 09:30:09;;;;;;;3.17;2.70;;;27.30;54.00;;;;;;5014842;28;20042;-70
2022/06/03 09:32:45;;;;;;;3.00;2.67;;;27.30;53.90;;;;;;5013508;28;20434;-71
2022/06/03 09:35:16;;;;;;;3.00;2.80;;;27.40;53.90;;;;;;5015175;28;20083;-70
2022/06/03 09:37:47;;;;;;;2.97;2.70;;;27.40;53.80;;;;;;5015177;28;20026;-72
2022/06/03 09:40:18;;;;;;;2.72;2.53;;;27.40;53.70;;;;;;5014717;28;20026;-75
2022/06/03 09:43:09;;;;;;;2.70;2.50;;;27.40;53.70;;;;;;5014388;28;20041;-74
2022/06/03 09:45:35;;;;;;;2.80;2.60;;;27.50;53.70;;;;;;5017066;28;20374;-70
2022/06/03 09:48:04;;;;;;;2.60;2.40;;;27.50;53.70;;;;;;5013386;28;20480;-69
2022/06/03 09:50:30;;;;;;;2.70;2.50;;;27.40;53.50;;;;;;5013337;28;20091;-69
2022/06/03 09:53:08;;;;;;;2.90;2.70;;;27.40;53.60;;;;;;5014597;28;20053;-72
2022/06/03 09:55:43;;;;;;;2.70;2.50;;;27.30;53.40;;;;;;5013292;28;20107;-74
2022/06/03 09:58:15;;;;;;;2.75;2.55;;;27.30;53.40;;;;;;5014167;28;20058;-72
2022/06/03 10:00:48;;;;;;;2.78;2.58;;;27.20;54.10;;;;;;5012998;28;20111;-70
2022/06/03 10:03:15;;;;;;;2.75;2.55;;;27.20;53.50;;;;;;5014401;28;20034;-67
2022/06/03 10:05:45;;;;;;;3.05;2.75;;;27.20;53.50;;;;;;5013140;28;20045;-71
2022/06/03 10:08:12;;;;;;;2.70;2.50;;;27.20;53.50;;;;;;5014049;28;20026;-70
2022/06/03 10:13:24;;;;;;;2.88;2.60;;;27.20;53.60;;;;;;5014443;28;20036;-70
2022/06/03 10:15:55;;;;;;;2.60;2.40;;;27.20;53.50;;;;;;5013994;28;20076;-76
2022/06/03 10:18:36;;;;;;;2.60;2.40;;;27.10;53.40;;;;;;5014114;28;20025;-70
2022/06/03 10:21:04;;;;;;;2.90;2.60;;;27.10;53.40;;;;;;5012853;28;20026;-71
2022/06/03 10:23:36;;;;;;;2.65;2.45;;;27.10;53.50;;;;;;5014219;28;20033;-71
2022/06/03 10:26:04;;;;;;;2.55;2.35;;;27.00;53.40;;;;;;5014005;28;20108;-72
2022/06/03 10:28:39;;;;;;;4.28;2.75;;;27.00;53.40;;;;;;5013670;28;20052;-71
2022/06/03 10:31:13;;;;;;;2.58;2.38;;;27.00;53.40;;;;;;5012578;28;20048;-69
2022/06/03 10:33:39;;;;;;;2.60;2.40;;;27.00;53.50;;;;;;5013207;28;20049;-70
2022/06/03 10:36:05;;;;;;;4.78;2.60;;;26.90;53.50;;;;;;5014311;28;20068;-68
2022/06/03 10:38:33;;;;;;;2.50;2.30;;;26.90;53.50;;;;;;5013827;28;20030;-75
2022/06/03 10:41:08;;;;;;;2.63;2.42;;;26.80;53.40;;;;;;5013669;28;20472;-71
2022/06/03 10:43:36;;;;;;;3.05;2.20;;;26.80;53.40;;;;;;5011676;28;20033;-70
2022/06/03 10:46:10;;;;;;;2.60;2.40;;;26.80;53.50;;;;;;5013197;28;20076;-71
2022/06/03 10:48:36;;;;;;;;;;;26.80;53.40;;;;;;5012985;28;20033;-68
2022/06/03 11:01:06;;;;;;;2.30;2.10;;;26.80;53.20;;;;;;5013798;28;19905;-75
2022/06/03 11:02:38;;;;;;;2.40;2.20;;;26.70;53.20;;;;;;5013746;28;20053;-70
2022/06/03 11:05:20;;;;;;;2.38;2.17;;;26.70;53.30;;;;;;5013969;28;20030;-70
2022/06/03 11:08:07;;;;;;;2.85;1.90;;;26.80;53.30;;;;;;5014091;28;20029;-70
2022/06/03 11:10:49;;;;;;;2.38;2.17;;;26.70;53.10;;;;;;5012269;28;20388;-71
2022/06/03 11:13:30;;;;;;;2.50;2.30;;;26.70;53.10;;;;;;5014038;28;20026;-71
2022/06/03 11:16:10;;;;;;;2.13;2.03;;;26.70;53.10;;;;;;5012652;28;20026;-70
2022/06/03 11:18:36;;;;;;;2.40;2.20;;;26.70;53.20;;;;;;5012560;28;20134;-68
2022/06/03 11:21:24;;;;;;;1.90;1.80;;;26.70;53.20;;;;;;5013286;28;20509;-71
2022/06/03 11:23:51;;;;;;;2.20;2.00;;;26.70;52.90;;;;;;5012468;28;20388;-75
2022/06/03 11:26:17;;;;;;;2.50;2.30;;;26.60;53.10;;;;;;5013530;28;20037;-71
2022/06/03 11:28:51;;;;;;;2.10;2.00;;;26.60;53.00;;;;;;5013378;28;20042;-69
2022/06/03 11:31:27;;;;;;;2.90;2.15;;;26.60;53.00;;;;;;5013182;28;20476;-71
2022/06/03 11:34:11;;;;;;;2.00;1.90;;;26.60;52.90;;;;;;5013312;28;20030;-71
2022/06/03 11:36:55;;;;;;;2.17;1.98;;;26.60;52.70;;;;;;5013483;28;20476;-67
2022/06/03 11:39:29;;;;;;;2.03;1.92;;;26.60;52.80;;;;;;5013248;28;20073;-70
2022/06/03 11:42:00;;;;;;;1.98;1.88;;;26.60;52.80;;;;;;5012799;28;20034;-72
2022/06/03 11:44:29;;;;;;;2.10;2.00;;;26.60;52.80;;;;;;5013179;28;20388;-70
2022/06/03 11:47:11;;;;;;;2.15;2.05;;;26.60;52.80;;;;;;5013381;28;20425;-70
2022/06/03 11:49:37;;;;;;;2.00;1.90;;;26.60;52.60;;;;;;5013405;28;20026;-68
2022/06/03 11:52:03;;;;;;;1.80;1.70;;;26.60;52.70;;;;;;5013273;28;20118;-71
2022/06/03 11:54:31;;;;;;;1.80;1.70;;;26.60;52.70;;;;;;5014936;28;20092;-74
2022/06/03 11:56:59;;;;;;;1.83;1.55;;;26.60;53.20;;;;;;5016734;28;20041;-72
2022/06/03 11:59:27;;;;;;;1.90;1.77;;;26.60;52.50;;;;;;5017107;28;20034;-70
2022/06/03 12:02:01;;;;;;;1.70;1.60;;;26.60;52.50;;;;;;5015312;28;20034;-70
2022/06/03 12:04:47;;;;;;;1.58;1.48;;;26.60;52.40;;;;;;5016876;28;20372;-71
2022/06/03 12:07:18;;;;;;;2.33;1.80;;;26.60;52.00;;;;;;5016682;28;20030;-71
2022/06/03 12:09:57;;;;;;;1.90;1.70;;;26.70;52.20;;;;;;5016812;28;20109;-73
2022/06/03 12:15:33;;;;;;;2.00;1.90;;;26.70;52.00;;;;;;5016793;28;20036;-71
2022/06/03 12:18:14;;;;;;;1.77;1.67;;;26.70;51.90;;;;;;5016287;28;20547;-71
2022/06/03 12:20:47;;;;;;;2.15;1.95;;;26.70;51.40;;;;;;5016244;28;20440;-69
2022/06/03 12:23:12;;;;;;;1.75;1.65;;;26.80;51.60;;;;;;5015983;28;20125;-71
2022/06/03 12:25:43;;;;;;;1.50;1.40;;;26.80;51.60;;;;;;5015954;28;20448;-72
2022/06/03 12:28:24;;;;;;;1.88;1.63;;;26.80;51.30;;;;;;5016144;28;20469;-71
2022/06/03 12:31:04;;;;;;;1.60;1.50;;;26.80;50.80;;;;;;5016412;28;20046;-71
2022/06/03 12:33:43;;;;;;;1.35;1.25;;;26.80;50.90;;;;;;5016498;28;20037;-71
2022/06/03 12:36:43;;;;;;;1.50;1.40;;;26.90;50.70;;;;;;5016136;28;20476;-71
2022/06/03 12:39:52;;;;;;;1.10;1.10;;;26.90;50.10;;;;;;5016411;28;20034;-71
2022/06/03 12:42:27;;;;;;;1.52;1.27;;;27.00;49.70;;;;;;5023940;28;20489;-71
2022/06/03 12:45:03;;;;;;;1.38;1.27;;;27.00;50.00;;;;;;5015957;28;20030;-68
2022/06/03 12:47:31;;;;;;;1.20;1.20;;;27.20;49.90;;;;;;5014555;28;20037;-70
2022/06/03 12:50:15;;;;;;;1.40;1.30;;;27.20;49.70;;;;;;5015594;28;20037;-71
2022/06/03 12:52:42;;;;;;;1.73;1.17;;;27.30;49.60;;;;;;5015550;28;20030;-71
2022/06/03 12:55:38;;;;;;;1.27;1.20;;;27.40;49.40;;;;;;5015677;28;20033;-70
2022/06/03 12:58:15;;;;;;;1.60;1.50;;;27.50;48.60;;;;;;5019206;28;20087;-76
2022/06/03 13:00:53;;;;;;;1.65;1.50;;;27.60;48.80;;;;;;5015619;28;20376;-71
2022/06/03 13:03:25;;;;;;;1.42;1.33;;;27.70;48.60;;;;;;5015644;28;20044;-72
2022/06/03 13:05:58;;;;;;;1.08;1.00;;;27.80;48.60;;;;;;5013795;28;20021;-69
2022/06/03 13:08:27;;;;;;;1.23;1.20;;;27.90;48.40;;;;;;5015814;28;20034;-71
2022/06/03 13:11:00;;;;;;;1.20;1.10;;;27.90;48.30;;;;;;5015402;28;20493;-69
2022/06/03 13:13:37;;;;;;;1.88;1.30;;;28.10;48.30;;;;;;5015286;28;20468;-72
2022/06/03 13:16:31;;;;;;;1.13;1.13;;;28.20;48.80;;;;;;5013971;28;20022;-71
2022/06/03 13:18:58;;;;;;;;;;;28.20;47.40;;;;;;5014356;28;20120;-70
2022/06/03 13:21:25;;;;;;;1.33;1.20;;;28.30;46.90;;;;;;5015130;28;19940;-72
2022/06/03 13:23:51;;;;;;;1.30;1.20;;;28.40;47.70;;;;;;5013612;28;20030;-70
2022/06/03 13:26:29;;;;;;;1.05;1.05;;;28.50;47.50;;;;;;5015274;28;20029;-70
2022/06/03 13:28:55;;;;;;;1.17;1.10;;;28.70;47.20;;;;;;5014961;28;20111;-70
2022/06/03 13:31:41;;;;;;;1.13;1.02;;;28.80;46.90;;;;;;5013788;28;20445;-71
2022/06/03 13:34:10;;;;;;;0.95;0.95;;;29.10;46.00;;;;;;5012633;28;20136;-68
2022/06/03 13:36:37;;;;;;;0.85;0.85;;;29.50;46.20;;;;;;5013404;28;20030;-75
2022/06/03 13:39:13;;;;;;;1.33;1.23;;;29.90;45.80;;;;;;5014485;28;20069;-73
2022/06/03 13:44:42;;;;;;;;;;;31.10;45.20;;;;;;5015049;28;20076;-69
2022/06/03 13:47:14;;;;;;;0.88;0.77;;;31.70;44.60;;;;;;5014490;28;19906;-71
2022/06/03 13:49:51;;;;;;;1.08;1.00;;;32.40;45.10;;;;;;5014530;28;20029;-70
2022/06/03 13:52:24;;;;;;;3.00;1.10;;;33.20;44.00;;;;;;5013030;28;20034;-71
2022/06/03 13:54:54;;;;;;;1.08;0.90;;;33.90;44.30;;;;;;5013128;28;20080;-71
2022/06/03 13:57:23;;;;;;;1.58;1.00;;;34.70;44.10;;;;;;5012832;28;20050;-72
2022/06/03 13:59:48;;;;;;;1.10;1.00;;;35.40;43.60;;;;;;5014263;28;20022;-70
2022/06/03 14:02:38;;;;;;;0.90;0.90;;;36.00;43.10;;;;;;5014181;28;20048;-70
2022/06/03 14:05:13;;;;;;;0.70;0.70;;;36.70;42.30;;;;;;5013229;28;20030;-70
2022/06/03 14:07:43;;;;;;;0.57;0.57;;;37.40;42.10;;;;;;5014162;28;20076;-70
2022/06/03 14:10:19;;;;;;;0.80;0.80;;;38.00;41.50;;;;;;5014134;28;20449;-71
2022/06/03 14:13:02;;;;;;;0.60;0.60;;;38.60;40.90;;;;;;5013915;28;20121;-72
2022/06/03 14:15:54;;;;;;;0.60;0.60;;;39.30;39.60;;;;;;5013753;28;20037;-72
2022/06/03 14:18:57;;;;;;;0.60;0.60;;;39.80;38.80;;;;;;5013081;28;20022;-71
2022/06/03 14:21:37;;;;;;;0.45;0.40;;;40.30;38.20;;;;;;5014021;28;20069;-70
2022/06/03 14:24:06;;;;;;;0.60;0.60;;;40.90;38.70;;;;;;5012646;28;20465;-71
2022/06/03 14:26:44;;;;;;;0.75;0.57;;;41.40;38.50;;;;;;5012284;28;20033;-71
2022/06/03 14:29:16;;;;;;;0.60;0.40;;;41.80;37.40;;;;;;5014694;28;20050;-70
2022/06/03 14:31:57;;;;;;;0.40;0.40;;;42.10;37.30;;;;;;5013756;28;20447;-71
2022/06/03 14:34:44;;;;;;;0.93;0.50;;;42.60;36.20;;;;;;5012231;28;20362;-72